Time;durP1;ratioP1;P1;durP2;ratioP2;P2;SDS_P1;SDS_P2;PMS_P1;PMS_P2;Temp;Humidity;BMP_temperature;BMP_pressure;BME280_temperature;BME280_humidity;BME280_pressure;Samples;Min_cycle;Max_cycle;Signal;HPM_P1;HPM_P2
2021/09/20 00:01:38;;;;;;;11.50;7.38;;;13.10;99.90;;;;;;5038873;28;20040;-72
2021/09/20 00:04:06;;;;;;;10.68;8.07;;;13.10;99.90;;;;;;5030755;28;20045;-71
2021/09/20 00:06:33;;;;;;;10.32;7.07;;;13.10;99.90;;;;;;5038792;28;20037;-71
2021/09/20 00:09:01;;;;;;;9.85;7.50;;;13.10;99.90;;;;;;5031494;28;20073;-71
2021/09/20 00:11:28;;;;;;;10.32;7.35;;;13.10;99.90;;;;;;5033360;28;20053;-71
2021/09/20 00:13:55;;;;;;;11.27;8.02;;;13.10;99.90;;;;;;5020482;28;20115;-71
2021/09/20 00:16:22;;;;;;;11.50;7.82;;;13.10;99.90;;;;;;5042497;28;20136;-71
2021/09/20 00:18:50;;;;;;;11.57;7.75;;;13.00;99.90;;;;;;5039496;28;20601;-71
2021/09/20 00:21:17;;;;;;;9.68;6.90;;;13.00;99.90;;;;;;5006162;28;20523;-71
2021/09/20 00:23:45;;;;;;;10.02;7.45;;;13.00;99.90;;;;;;5038722;28;20199;-71
2021/09/20 00:26:12;;;;;;;10.75;7.30;;;13.00;99.90;;;;;;5031542;28;20049;-71
2021/09/20 00:28:40;;;;;;;11.93;8.30;;;13.00;99.90;;;;;;5040789;28;20120;-71
2021/09/20 00:31:08;;;;;;;10.82;8.10;;;13.00;99.90;;;;;;5003481;28;20049;-71
2021/09/20 00:33:35;;;;;;;11.85;8.40;;;13.00;99.90;;;;;;5023778;28;20132;-71
2021/09/20 00:36:03;;;;;;;11.27;8.18;;;13.00;99.90;;;;;;5044219;28;20048;-71
2021/09/20 00:38:30;;;;;;;10.80;8.23;;;13.00;99.90;;;;;;5039349;28;20045;-71
2021/09/20 00:40:57;;;;;;;11.35;8.52;;;13.00;99.90;;;;;;5037185;28;20067;-71
2021/09/20 00:43:25;;;;;;;11.95;8.93;;;13.00;99.90;;;;;;5039222;28;20340;-71
2021/09/20 00:45:53;;;;;;;10.73;8.15;;;13.00;99.90;;;;;;5032056;28;20045;-71
2021/09/20 00:48:20;;;;;;;10.43;8.50;;;12.90;99.90;;;;;;5037291;28;20475;-71
2021/09/20 00:50:48;;;;;;;11.45;8.35;;;12.90;99.90;;;;;;5037081;28;20136;-72
2021/09/20 00:53:15;;;;;;;9.77;7.65;;;12.90;99.90;;;;;;5029845;28;20145;-71
2021/09/20 00:55:44;;;;;;;10.52;7.90;;;12.90;99.90;;;;;;5029240;28;20152;-71
2021/09/20 00:58:13;;;;;;;12.38;8.23;;;12.90;99.90;;;;;;5029335;28;20124;-71
2021/09/20 01:00:40;;;;;;;12.38;9.23;;;13.00;99.90;;;;;;5034167;28;20056;-71
2021/09/20 01:03:08;;;;;;;11.23;9.00;;;12.90;99.90;;;;;;5029471;28;20120;-71
2021/09/20 01:05:35;;;;;;;11.73;7.75;;;12.90;99.90;;;;;;5032841;28;20380;-71
2021/09/20 01:08:03;;;;;;;9.77;7.50;;;12.80;99.90;;;;;;5029175;28;20046;-71
2021/09/20 01:10:31;;;;;;;12.68;8.25;;;12.80;99.90;;;;;;5031750;28;20876;-71
2021/09/20 01:12:58;;;;;;;13.35;10.20;;;12.80;99.90;;;;;;5035614;28;20069;-71
2021/09/20 01:15:25;;;;;;;12.30;9.00;;;12.80;99.90;;;;;;5030876;28;20565;-71
2021/09/20 01:17:53;;;;;;;10.65;7.68;;;12.80;99.90;;;;;;5033834;28;20415;-71
2021/09/20 01:20:22;;;;;;;11.60;8.60;;;12.80;99.90;;;;;;5029296;28;20042;-71
2021/09/20 01:23:00;;;;;;;12.07;8.57;;;12.90;99.90;;;;;;5030117;28;20065;-71
2021/09/20 01:25:34;;;;;;;11.48;8.55;;;12.90;99.90;;;;;;5001635;28;20068;-71
2021/09/20 01:28:02;;;;;;;11.30;7.85;;;12.90;99.90;;;;;;5016108;28;20051;-71
2021/09/20 01:30:30;;;;;;;13.18;8.63;;;12.90;99.90;;;;;;5021992;28;20041;-71
2021/09/20 01:32:57;;;;;;;11.18;8.20;;;12.80;99.90;;;;;;5031296;28;20042;-71
2021/09/20 01:35:25;;;;;;;10.52;7.90;;;12.80;99.90;;;;;;5032261;28;20526;-71
2021/09/20 01:37:54;;;;;;;10.50;8.13;;;12.80;99.90;;;;;;5033115;28;20125;-71
2021/09/20 01:40:21;;;;;;;10.55;8.60;;;12.80;99.90;;;;;;5025819;28;20401;-71
2021/09/20 01:42:49;;;;;;;12.35;8.30;;;12.70;99.90;;;;;;5013096;28;20049;-71
2021/09/20 01:45:16;;;;;;;12.57;8.93;;;12.80;99.90;;;;;;5026582;28;20129;-71
2021/09/20 01:47:45;;;;;;;11.68;8.10;;;12.80;99.90;;;;;;5004927;28;20141;-71
2021/09/20 01:50:14;;;;;;;11.63;8.48;;;12.80;99.90;;;;;;5033722;28;20041;-71
2021/09/20 01:52:43;;;;;;;11.45;8.77;;;12.80;99.90;;;;;;5028395;28;20079;-71
2021/09/20 01:55:11;;;;;;;11.30;9.02;;;12.80;99.90;;;;;;5028299;28;20550;-71
2021/09/20 01:57:39;;;;;;;14.00;8.38;;;12.80;99.90;;;;;;5021660;28;20045;-71
2021/09/20 02:00:09;;;;;;;11.00;8.27;;;12.80;99.90;;;;;;5035366;28;20037;-71
2021/09/20 02:02:40;;;;;;;11.23;7.78;;;12.80;99.90;;;;;;5036303;28;20037;-71
2021/09/20 02:05:09;;;;;;;11.00;8.80;;;12.80;99.90;;;;;;5014126;28;20056;-71
2021/09/20 02:07:37;;;;;;;12.90;9.38;;;12.80;99.90;;;;;;5034282;28;20077;-71
2021/09/20 02:10:06;;;;;;;11.48;8.32;;;12.80;99.90;;;;;;5038693;28;20081;-71
2021/09/20 02:12:33;;;;;;;10.77;7.95;;;12.80;99.90;;;;;;5040289;28;20056;-71
2021/09/20 02:15:02;;;;;;;11.88;8.80;;;12.80;99.90;;;;;;5039386;28;20059;-71
2021/09/20 02:17:29;;;;;;;13.52;8.80;;;12.80;99.90;;;;;;5037124;28;20447;-71
2021/09/20 02:19:57;;;;;;;12.02;8.65;;;12.80;99.90;;;;;;5045654;28;20055;-71
2021/09/20 02:22:24;;;;;;;12.48;8.80;;;12.80;99.90;;;;;;5043364;28;20076;-71
2021/09/20 02:24:51;;;;;;;13.63;8.85;;;12.80;99.90;;;;;;5042652;28;20044;-71
2021/09/20 02:27:19;;;;;;;12.15;8.73;;;12.80;99.90;;;;;;5044166;28;20091;-71
2021/09/20 02:29:46;;;;;;;11.00;8.23;;;12.80;99.90;;;;;;5023020;28;20576;-71
2021/09/20 02:32:13;;;;;;;11.70;8.57;;;12.80;99.90;;;;;;4996127;28;20053;-71
2021/09/20 02:34:41;;;;;;;11.50;8.63;;;12.80;99.90;;;;;;5030814;28;20067;-71
2021/09/20 02:37:08;;;;;;;11.80;8.90;;;12.70;99.90;;;;;;5031065;28;20063;-71
2021/09/20 02:39:35;;;;;;;15.27;9.50;;;12.70;99.90;;;;;;5031907;28;20128;-71
2021/09/20 02:42:03;;;;;;;11.40;8.20;;;12.70;99.90;;;;;;5033994;28;20041;-71
2021/09/20 02:44:30;;;;;;;10.63;8.43;;;12.60;99.90;;;;;;5030497;28;20123;-71
2021/09/20 02:46:57;;;;;;;11.00;8.40;;;12.70;99.90;;;;;;5014208;28;20738;-71
2021/09/20 02:49:24;;;;;;;10.90;8.25;;;12.70;99.90;;;;;;5039469;28;20047;-71
2021/09/20 02:51:52;;;;;;;12.82;8.93;;;12.70;99.90;;;;;;5028006;28;20049;-72
2021/09/20 02:54:19;;;;;;;11.68;8.27;;;12.70;99.90;;;;;;5028206;28;20083;-72
2021/09/20 02:56:46;;;;;;;11.75;8.70;;;12.70;99.90;;;;;;5036796;28;20041;-71
2021/09/20 02:59:13;;;;;;;12.32;8.65;;;12.70;99.90;;;;;;5047676;28;20445;-71
2021/09/20 03:01:42;;;;;;;12.20;8.90;;;12.70;99.90;;;;;;5047468;28;20053;-72
2021/09/20 03:04:09;;;;;;;12.38;9.23;;;12.70;99.90;;;;;;5015603;28;20366;-72
2021/09/20 03:06:36;;;;;;;11.35;8.57;;;12.70;99.90;;;;;;4998117;28;20533;-72
2021/09/20 03:09:07;;;;;;;11.85;8.35;;;12.70;99.90;;;;;;5037044;28;20088;-71
2021/09/20 03:11:34;;;;;;;13.05;9.45;;;12.60;99.90;;;;;;5036070;28;20059;-71
2021/09/20 03:14:03;;;;;;;12.93;9.25;;;12.60;99.90;;;;;;5046403;28;20051;-72
2021/09/20 03:16:30;;;;;;;11.18;8.25;;;12.60;99.90;;;;;;5038070;28;20052;-71
2021/09/20 03:18:57;;;;;;;14.38;9.65;;;12.70;99.90;;;;;;5003641;28;20081;-72
2021/09/20 03:21:25;;;;;;;14.10;8.50;;;12.70;99.90;;;;;;5031946;28;20118;-72
2021/09/20 03:23:52;;;;;;;13.10;9.57;;;12.70;99.90;;;;;;5039214;28;20042;-72
2021/09/20 03:26:20;;;;;;;12.93;9.02;;;12.70;99.90;;;;;;5035156;28;20041;-72
2021/09/20 03:28:47;;;;;;;10.88;8.20;;;12.70;99.90;;;;;;5034289;28;20045;-72
2021/09/20 03:31:18;;;;;;;13.13;8.70;;;12.70;99.90;;;;;;5031937;28;20112;-71
2021/09/20 03:33:46;;;;;;;11.13;8.38;;;12.70;99.90;;;;;;5015311;28;20128;-71
2021/09/20 03:36:14;;;;;;;11.10;7.97;;;12.70;99.90;;;;;;5027132;28;20379;-71
2021/09/20 03:38:41;;;;;;;11.88;8.55;;;12.70;99.90;;;;;;5007544;28;20052;-71
2021/09/20 03:41:08;;;;;;;11.77;8.80;;;12.60;99.90;;;;;;5035435;28;20049;-71
2021/09/20 03:43:36;;;;;;;12.32;9.13;;;12.60;99.90;;;;;;5029039;28;20484;-71
2021/09/20 03:46:03;;;;;;;13.18;9.07;;;12.60;99.90;;;;;;5026800;28;20111;-70
2021/09/20 03:48:31;;;;;;;11.93;8.77;;;12.60;99.90;;;;;;5034793;28;20478;-70
2021/09/20 03:50:58;;;;;;;11.35;8.68;;;12.50;99.90;;;;;;5035996;28;20046;-70
2021/09/20 03:53:25;;;;;;;14.15;9.70;;;12.50;99.90;;;;;;5027773;28;20124;-71
2021/09/20 03:55:53;;;;;;;13.32;8.82;;;12.50;99.90;;;;;;5028380;28;20041;-71
2021/09/20 03:58:20;;;;;;;11.48;8.82;;;12.50;99.90;;;;;;5006826;28;20041;-71
2021/09/20 04:00:47;;;;;;;13.23;9.98;;;12.50;99.90;;;;;;5035736;28;20051;-71
2021/09/20 04:03:15;;;;;;;12.02;8.48;;;12.50;99.90;;;;;;5039543;28;20467;-71
2021/09/20 04:05:42;;;;;;;12.73;9.85;;;12.40;99.90;;;;;;5035018;28;20061;-71
2021/09/20 04:08:13;;;;;;;12.38;9.80;;;12.40;99.90;;;;;;5047820;28;20461;-71
2021/09/20 04:10:40;;;;;;;14.05;10.75;;;12.40;99.90;;;;;;5047675;28;20139;-71
2021/09/20 04:13:08;;;;;;;26.38;18.85;;;12.30;99.90;;;;;;5045829;28;20049;-70
2021/09/20 04:15:37;;;;;;;16.00;12.75;;;12.40;99.90;;;;;;5032783;28;20095;-71
2021/09/20 04:18:05;;;;;;;18.08;13.82;;;12.40;99.90;;;;;;5022456;28;20052;-70
2021/09/20 04:20:33;;;;;;;17.02;11.50;;;12.40;99.90;;;;;;5021078;28;20500;-71
2021/09/20 04:23:00;;;;;;;22.88;14.98;;;12.40;99.90;;;;;;5036244;28;20110;-71
2021/09/20 04:25:28;;;;;;;17.63;13.57;;;12.30;99.90;;;;;;5035303;28;20096;-71
2021/09/20 04:27:55;;;;;;;16.20;11.13;;;12.30;99.90;;;;;;5019843;28;20052;-71
2021/09/20 04:30:22;;;;;;;14.63;10.55;;;12.30;99.90;;;;;;5006424;28;20504;-71
2021/09/20 04:32:50;;;;;;;17.33;12.82;;;12.20;99.90;;;;;;5015043;28;20081;-71
2021/09/20 04:35:17;;;;;;;16.92;12.30;;;12.20;99.90;;;;;;5032049;28;20099;-71
2021/09/20 04:37:44;;;;;;;13.18;10.27;;;12.20;99.90;;;;;;5025511;28;20060;-71
2021/09/20 04:40:12;;;;;;;14.48;10.07;;;12.20;99.90;;;;;;5032461;28;20755;-71
2021/09/20 04:42:39;;;;;;;12.73;9.05;;;12.20;99.90;;;;;;5040821;28;20443;-71
2021/09/20 04:45:07;;;;;;;12.52;9.20;;;12.20;99.90;;;;;;5041996;28;20049;-71
2021/09/20 04:47:34;;;;;;;11.88;8.88;;;12.20;99.90;;;;;;5024477;28;20054;-71
2021/09/20 04:50:02;;;;;;;11.23;8.60;;;12.20;99.90;;;;;;5044133;28;20067;-71
2021/09/20 04:52:30;;;;;;;12.38;8.95;;;12.20;99.90;;;;;;5031636;28;20416;-71
2021/09/20 04:54:57;;;;;;;13.38;10.13;;;12.20;99.90;;;;;;5031357;28;20148;-70
2021/09/20 04:57:24;;;;;;;13.73;10.15;;;12.20;99.90;;;;;;5030384;28;20049;-70
2021/09/20 04:59:52;;;;;;;14.40;10.70;;;12.10;99.90;;;;;;5043760;28;20081;-70
2021/09/20 05:02:19;;;;;;;15.73;11.02;;;12.10;99.90;;;;;;5042486;28;20065;-71
2021/09/20 05:04:46;;;;;;;12.82;9.57;;;12.10;99.90;;;;;;5044839;28;20049;-71
2021/09/20 05:07:14;;;;;;;11.85;8.82;;;12.00;99.90;;;;;;5015029;28;20038;-71
2021/09/20 05:09:41;;;;;;;12.35;8.98;;;12.00;99.90;;;;;;5043803;28;20076;-71
2021/09/20 05:12:08;;;;;;;19.58;13.77;;;12.00;99.90;;;;;;5032647;28;20120;-71
2021/09/20 05:14:36;;;;;;;18.40;13.48;;;12.00;99.90;;;;;;5033387;28;20049;-71
2021/09/20 05:17:04;;;;;;;12.77;9.73;;;12.00;99.90;;;;;;5018138;28;20135;-71
2021/09/20 05:19:32;;;;;;;11.90;8.77;;;12.00;99.90;;;;;;5033553;28;20503;-71
2021/09/20 05:21:59;;;;;;;16.30;10.80;;;12.10;99.90;;;;;;5038858;28;20507;-71
2021/09/20 05:24:27;;;;;;;16.95;11.15;;;12.00;99.90;;;;;;5031636;28;20506;-71
2021/09/20 05:26:54;;;;;;;14.98;10.05;;;12.00;99.90;;;;;;5034405;28;20053;-71
2021/09/20 05:29:22;;;;;;;12.88;8.80;;;12.00;99.90;;;;;;5030535;28;20120;-71
2021/09/20 05:31:49;;;;;;;14.48;10.23;;;12.10;99.90;;;;;;5024935;28;20436;-72
2021/09/20 05:34:18;;;;;;;14.30;9.57;;;12.10;99.90;;;;;;5019585;28;20154;-72
2021/09/20 05:36:46;;;;;;;12.02;8.57;;;12.10;99.90;;;;;;5041273;28;20041;-71
2021/09/20 05:39:13;;;;;;;12.57;8.80;;;12.20;99.90;;;;;;5029367;28;20073;-71
2021/09/20 05:41:40;;;;;;;13.57;9.13;;;12.20;99.90;;;;;;5036064;28;20053;-72
2021/09/20 05:44:07;;;;;;;13.15;8.98;;;12.20;99.90;;;;;;5028208;28;20042;-72
2021/09/20 05:46:35;;;;;;;12.05;8.93;;;12.20;99.90;;;;;;5035425;28;20412;-72
2021/09/20 05:49:02;;;;;;;13.50;9.02;;;12.30;99.90;;;;;;5037981;28;20041;-71
2021/09/20 05:51:29;;;;;;;12.70;8.70;;;12.30;99.90;;;;;;4999281;28;20057;-71
2021/09/20 05:53:57;;;;;;;11.73;8.80;;;12.30;99.90;;;;;;5012314;28;20764;-72
2021/09/20 05:56:24;;;;;;;12.07;8.27;;;12.30;99.90;;;;;;5010920;28;20057;-71
2021/09/20 05:58:51;;;;;;;12.98;8.82;;;12.40;99.90;;;;;;5022671;28;20464;-71
2021/09/20 06:01:19;;;;;;;11.43;7.95;;;12.50;99.90;;;;;;5035492;28;20042;-71
2021/09/20 06:03:47;;;;;;;11.35;7.95;;;12.50;99.90;;;;;;5032222;28;20128;-71
2021/09/20 06:06:14;;;;;;;11.20;8.18;;;12.50;99.90;;;;;;5035602;28;20044;-70
2021/09/20 06:08:42;;;;;;;11.40;8.07;;;12.60;99.90;;;;;;5029591;28;20196;-71
2021/09/20 06:11:11;;;;;;;9.77;7.13;;;12.60;99.90;;;;;;5034186;28;20041;-71
2021/09/20 06:13:39;;;;;;;11.15;8.77;;;12.70;99.90;;;;;;5013781;28;20053;-71
2021/09/20 06:16:06;;;;;;;11.45;8.13;;;12.70;99.90;;;;;;5012954;28;20508;-71
2021/09/20 06:18:35;;;;;;;10.98;7.72;;;12.70;99.90;;;;;;5023136;28;20088;-72
2021/09/20 06:21:03;;;;;;;12.30;8.13;;;12.80;99.90;;;;;;5029601;28;20063;-72
2021/09/20 06:23:30;;;;;;;12.43;7.68;;;12.70;99.90;;;;;;5018757;28;20046;-72
2021/09/20 06:25:58;;;;;;;11.38;7.28;;;12.80;99.90;;;;;;5028484;28;20053;-71
2021/09/20 06:28:25;;;;;;;10.55;7.63;;;12.80;99.90;;;;;;5020664;28;20041;-72
2021/09/20 06:30:53;;;;;;;10.98;7.82;;;12.80;99.90;;;;;;5013027;28;20073;-71
2021/09/20 06:33:20;;;;;;;14.60;8.70;;;12.80;99.90;;;;;;5022603;28;20049;-72
2021/09/20 06:35:49;;;;;;;11.07;7.60;;;12.90;99.90;;;;;;5033324;28;20387;-72
2021/09/20 06:38:16;;;;;;;12.40;7.70;;;12.90;99.90;;;;;;5028704;28;20065;-72
2021/09/20 06:40:43;;;;;;;11.52;7.45;;;12.90;99.90;;;;;;5028044;28;20129;-72
2021/09/20 06:43:11;;;;;;;10.75;7.43;;;13.00;99.90;;;;;;5031021;28;20061;-72
2021/09/20 06:45:38;;;;;;;9.30;7.00;;;13.00;99.90;;;;;;5023469;28;20120;-72
2021/09/20 06:48:05;;;;;;;11.15;7.45;;;13.00;99.90;;;;;;5033085;28;20077;-71
2021/09/20 06:50:33;;;;;;;11.93;7.65;;;13.00;99.90;;;;;;5031115;28;20041;-72
2021/09/20 06:53:00;;;;;;;9.90;7.30;;;13.00;99.90;;;;;;5027696;28;20081;-71
2021/09/20 06:55:28;;;;;;;9.98;6.88;;;13.10;99.90;;;;;;5027793;28;20500;-71
2021/09/20 06:57:59;;;;;;;8.93;6.47;;;13.10;99.90;;;;;;5028234;28;20061;-71
2021/09/20 07:00:28;;;;;;;10.95;7.25;;;13.10;99.90;;;;;;5010978;28;20049;-71
2021/09/20 07:02:55;;;;;;;9.43;6.45;;;13.10;99.90;;;;;;5010231;28;20444;-71
2021/09/20 07:05:24;;;;;;;9.07;6.90;;;13.20;99.90;;;;;;5027868;28;20056;-71
2021/09/20 07:07:51;;;;;;;10.25;7.45;;;13.10;99.90;;;;;;5027319;28;20116;-71
2021/09/20 07:10:19;;;;;;;8.90;6.90;;;13.20;99.90;;;;;;5031253;28;20437;-70
2021/09/20 07:12:47;;;;;;;9.48;6.47;;;13.20;99.90;;;;;;5017442;28;20057;-71
2021/09/20 07:15:15;;;;;;;11.00;7.20;;;13.20;99.90;;;;;;5012442;28;20075;-71
2021/09/20 07:17:42;;;;;;;10.23;6.72;;;13.30;99.90;;;;;;4993508;28;20057;-71
2021/09/20 07:20:11;;;;;;;10.73;6.85;;;13.30;99.90;;;;;;5007953;28;20122;-71
2021/09/20 07:22:39;;;;;;;11.73;7.30;;;13.30;99.90;;;;;;5019262;28;20208;-72
2021/09/20 07:25:07;;;;;;;13.18;8.32;;;13.30;99.90;;;;;;5023690;28;20488;-72
2021/09/20 07:27:35;;;;;;;9.35;6.72;;;13.30;99.90;;;;;;5037356;28;20049;-71
2021/09/20 07:30:05;;;;;;;9.88;7.22;;;13.40;99.90;;;;;;5040904;28;20452;-72
2021/09/20 07:32:33;;;;;;;12.82;7.78;;;13.40;99.90;;;;;;5016646;28;20052;-72
2021/09/20 07:35:01;;;;;;;12.23;7.20;;;13.40;99.90;;;;;;5043974;28;20072;-71
2021/09/20 07:37:28;;;;;;;9.75;6.60;;;13.50;99.90;;;;;;5039104;28;20139;-72
2021/09/20 07:39:57;;;;;;;12.73;6.72;;;13.50;99.90;;;;;;5018200;28;20077;-72
2021/09/20 07:42:26;;;;;;;11.57;7.18;;;13.60;99.90;;;;;;4999519;28;20057;-71
2021/09/20 07:44:53;;;;;;;11.05;7.13;;;13.70;99.90;;;;;;5030160;28;20045;-72
2021/09/20 07:47:20;;;;;;;13.07;7.65;;;13.70;99.90;;;;;;5021732;28;20069;-73
2021/09/20 07:49:48;;;;;;;11.25;7.28;;;13.70;99.90;;;;;;5020184;28;20116;-71
2021/09/20 07:52:15;;;;;;;13.43;7.38;;;13.70;99.90;;;;;;5019845;28;20050;-72
2021/09/20 07:54:42;;;;;;;9.43;6.40;;;13.60;99.90;;;;;;5018177;28;20484;-71
2021/09/20 07:57:10;;;;;;;14.05;6.72;;;13.60;99.90;;;;;;5016458;28;20041;-72
2021/09/20 07:59:37;;;;;;;9.38;6.55;;;13.70;99.90;;;;;;5023663;28;20613;-73
2021/09/20 08:02:04;;;;;;;11.60;7.13;;;13.70;99.90;;;;;;5036899;28;20041;-72
2021/09/20 08:04:32;;;;;;;12.10;8.10;;;13.70;99.90;;;;;;5042664;28;20029;-72
2021/09/20 08:06:59;;;;;;;11.15;8.68;;;13.80;99.90;;;;;;5026006;28;20057;-73
2021/09/20 08:09:27;;;;;;;9.57;6.88;;;13.90;99.90;;;;;;5026004;28;20038;-71
2021/09/20 08:11:54;;;;;;;17.00;7.85;;;14.00;99.90;;;;;;5039755;28;20050;-70
2021/09/20 08:14:21;;;;;;;10.65;7.47;;;14.10;99.90;;;;;;5030712;28;20045;-70
2021/09/20 08:16:49;;;;;;;9.95;6.93;;;14.10;99.90;;;;;;5045515;28;20040;-73
2021/09/20 08:19:16;;;;;;;9.70;6.93;;;14.30;99.90;;;;;;5007878;28;20073;-71
2021/09/20 08:21:44;;;;;;;10.85;6.57;;;14.40;99.90;;;;;;5029787;28;20136;-72
2021/09/20 08:24:12;;;;;;;9.63;6.80;;;14.40;99.90;;;;;;5039472;28;20660;-72
2021/09/20 08:26:39;;;;;;;9.25;6.75;;;14.50;99.90;;;;;;5041706;28;20088;-71
2021/09/20 08:29:07;;;;;;;10.65;6.65;;;14.60;99.90;;;;;;5033866;28;20142;-71
2021/09/20 08:31:34;;;;;;;8.65;6.00;;;14.80;99.90;;;;;;5021974;28;20164;-71
2021/09/20 08:34:02;;;;;;;10.48;6.25;;;14.80;99.90;;;;;;5041968;28;20051;-71
2021/09/20 08:36:30;;;;;;;8.63;6.10;;;14.90;99.90;;;;;;5041296;28;20587;-71
2021/09/20 08:38:57;;;;;;;12.93;9.38;;;15.00;99.90;;;;;;5015925;28;20068;-71
2021/09/20 08:41:26;;;;;;;10.25;7.00;;;15.00;99.90;;;;;;5003328;28;20065;-71
2021/09/20 08:43:53;;;;;;;13.27;7.05;;;15.10;99.90;;;;;;5017235;28;20045;-72
2021/09/20 08:46:21;;;;;;;12.75;6.60;;;15.10;99.90;;;;;;5023498;28;20480;-71
2021/09/20 08:48:51;;;;;;;15.50;6.60;;;15.10;99.90;;;;;;5038842;28;20095;-71
2021/09/20 08:51:19;;;;;;;10.55;7.45;;;15.20;99.90;;;;;;5012433;28;20081;-71
2021/09/20 08:53:50;;;;;;;12.32;7.15;;;15.30;99.90;;;;;;5023696;28;20446;-71
2021/09/20 08:56:17;;;;;;;10.43;6.80;;;15.50;99.90;;;;;;5028007;28;20050;-71
2021/09/20 08:58:45;;;;;;;12.50;6.78;;;15.60;99.90;;;;;;5029307;28;20527;-72
2021/09/20 09:01:13;;;;;;;17.67;6.93;;;15.70;99.90;;;;;;5041547;28;20044;-70
2021/09/20 09:03:40;;;;;;;11.57;6.15;;;15.60;99.90;;;;;;5011799;28;20042;-71
2021/09/20 09:06:08;;;;;;;9.48;6.00;;;15.70;99.90;;;;;;5040537;28;20079;-71
2021/09/20 09:08:39;;;;;;;13.32;6.30;;;15.80;99.90;;;;;;5036577;28;20045;-72
2021/09/20 09:11:16;;;;;;;11.07;6.28;;;15.80;99.90;;;;;;5034731;28;20041;-72
2021/09/20 09:13:46;;;;;;;17.52;6.95;;;15.80;99.90;;;;;;5011286;28;20057;-71
2021/09/20 09:16:19;;;;;;;11.77;6.10;;;15.70;99.90;;;;;;5006485;28;20139;-72
2021/09/20 09:19:07;;;;;;;16.80;6.25;;;15.70;99.90;;;;;;5041682;28;20421;-72
2021/09/20 09:21:40;;;;;;;10.98;6.13;;;15.70;99.90;;;;;;5022376;28;20056;-71
2021/09/20 09:24:14;;;;;;;12.43;8.13;;;15.70;99.90;;;;;;5022038;28;20041;-71
2021/09/20 09:26:59;;;;;;;10.45;6.80;;;15.80;99.90;;;;;;5029020;28;20652;-71
2021/09/20 09:29:32;;;;;;;8.30;5.95;;;16.00;99.90;;;;;;5041139;28;20099;-71
2021/09/20 09:32:02;;;;;;;10.10;5.80;;;16.20;99.90;;;;;;5033856;28;20037;-71
2021/09/20 09:34:32;;;;;;;11.60;5.60;;;16.20;99.90;;;;;;5033047;28;20041;-71
2021/09/20 09:37:09;;;;;;;9.07;5.63;;;16.30;99.90;;;;;;5033601;28;20069;-71
2021/09/20 09:39:37;;;;;;;13.55;6.05;;;16.40;99.90;;;;;;5012650;28;20730;-71
2021/09/20 09:42:19;;;;;;;10.15;6.03;;;16.60;99.90;;;;;;5037131;28;20064;-71
2021/09/20 09:44:46;;;;;;;11.82;5.53;;;16.70;99.90;;;;;;5019704;28;20048;-71
2021/09/20 09:47:25;;;;;;;10.38;7.00;;;17.00;99.90;;;;;;5030307;28;20387;-71
2021/09/20 09:50:31;;;;;;;7.30;5.60;;;17.20;99.90;;;;;;5023293;28;20579;-72
2021/09/20 09:52:59;;;;;;;10.43;5.72;;;17.50;99.90;;;;;;5016180;28;20072;-72
2021/09/20 09:55:31;;;;;;;9.98;5.88;;;17.80;99.90;;;;;;5032684;28;20053;-72
2021/09/20 09:58:12;;;;;;;8.77;4.80;;;17.90;99.90;;;;;;5015121;28;20131;-72
2021/09/20 10:00:39;;;;;;;9.00;5.47;;;18.00;99.90;;;;;;5041379;28;20231;-71
2021/09/20 10:03:07;;;;;;;11.80;5.25;;;18.30;99.90;;;;;;5044717;28;20085;-72
2021/09/20 10:05:35;;;;;;;8.35;5.32;;;18.30;99.90;;;;;;5016733;28;20049;-71
2021/09/20 10:08:11;;;;;;;11.85;5.60;;;18.50;99.90;;;;;;5014891;28;20214;-71
2021/09/20 10:10:41;;;;;;;10.05;5.30;;;18.80;99.90;;;;;;5027720;28;20119;-72
2021/09/20 10:13:08;;;;;;;7.75;4.85;;;18.70;99.90;;;;;;5016829;28;20048;-72
2021/09/20 10:15:36;;;;;;;9.10;4.80;;;19.10;99.90;;;;;;5035708;28;20076;-72
2021/09/20 10:18:04;;;;;;;7.80;4.70;;;19.40;99.90;;;;;;5017609;28;20053;-72
2021/09/20 10:20:32;;;;;;;7.18;4.57;;;19.60;99.90;;;;;;5026529;28;20521;-71
2021/09/20 10:23:00;;;;;;;8.20;5.30;;;19.90;99.90;;;;;;5005672;28;20106;-72
2021/09/20 10:25:29;;;;;;;8.80;5.10;;;20.20;99.90;;;;;;5018452;28;20049;-72
2021/09/20 10:27:58;;;;;;;8.75;4.95;;;20.30;99.90;;;;;;5026906;28;20299;-72
2021/09/20 10:30:30;;;;;;;7.50;5.13;;;20.30;99.90;;;;;;5024352;28;20048;-72
2021/09/20 10:32:58;;;;;;;;;;;20.20;99.90;;;;;;5012789;28;20061;-70
2021/09/20 10:35:36;;;;;;;10.55;5.22;;;20.20;99.90;;;;;;5035443;28;19931;-71
2021/09/20 10:38:12;;;;;;;7.57;4.78;;;20.50;99.90;;;;;;5035859;28;20079;-71
2021/09/20 10:40:39;;;;;;;10.80;5.45;;;20.80;99.90;;;;;;5044362;28;20103;-71
2021/09/20 10:43:07;;;;;;;9.68;4.60;;;21.10;99.90;;;;;;5030241;28;20046;-72
2021/09/20 10:45:49;;;;;;;8.88;5.63;;;21.40;99.90;;;;;;5031048;28;20139;-72
2021/09/20 10:48:19;;;;;;;28.13;7.50;;;21.70;99.90;;;;;;5013226;28;20399;-71
2021/09/20 10:50:49;;;;;;;10.45;5.18;;;21.70;99.90;;;;;;5014559;28;20048;-71
2021/09/20 10:53:18;;;;;;;6.35;4.15;;;21.40;99.90;;;;;;5019579;28;20045;-71
2021/09/20 10:56:19;;;;;;;11.50;5.07;;;21.40;99.90;;;;;;5014674;28;20134;-71
2021/09/20 10:58:53;;;;;;;14.13;5.53;;;21.40;99.90;;;;;;5004810;28;20084;-72
2021/09/20 11:01:24;;;;;;;9.98;4.25;;;21.80;99.90;;;;;;5027905;28;20303;-71
2021/09/20 11:04:03;;;;;;;12.85;4.90;;;22.40;99.90;;;;;;5035633;28;20415;-71
2021/09/20 11:06:36;;;;;;;9.15;4.53;;;22.70;99.90;;;;;;5033444;28;20137;-71
2021/09/20 11:09:07;;;;;;;16.88;4.53;;;22.80;99.90;;;;;;5043728;28;20052;-72
2021/09/20 11:11:43;;;;;;;36.07;7.23;;;22.90;99.90;;;;;;5039721;28;20137;-72
2021/09/20 11:14:35;;;;;;;6.75;4.60;;;22.80;99.90;;;;;;5028426;28;20057;-71
2021/09/20 11:17:19;;;;;;;6.63;4.18;;;22.30;99.90;;;;;;5035561;28;20086;-72
2021/09/20 11:19:48;;;;;;;10.52;4.88;;;21.80;99.90;;;;;;5018499;28;20507;-71
2021/09/20 11:22:15;;;;;;;6.65;4.47;;;22.10;99.90;;;;;;5031531;28;20057;-71
2021/09/20 11:24:48;;;;;;;6.30;4.35;;;22.20;99.90;;;;;;5015743;28;20136;-71
2021/09/20 11:27:16;;;;;;;22.38;6.85;;;22.10;99.90;;;;;;4999828;28;20046;-71
2021/09/20 11:29:49;;;;;;;25.38;6.75;;;21.70;99.90;;;;;;5015615;28;20045;-71
2021/09/20 11:32:17;;;;;;;11.00;4.80;;;21.90;99.90;;;;;;5033292;28;20142;-71
2021/09/20 11:34:48;;;;;;;6.68;4.55;;;22.10;99.90;;;;;;5037815;28;20132;-71
2021/09/20 11:37:26;;;;;;;8.48;4.28;;;22.30;99.90;;;;;;5028112;28;20041;-71
2021/09/20 11:39:57;;;;;;;7.97;4.68;;;22.10;99.90;;;;;;5030362;28;20069;-71
2021/09/20 11:42:42;;;;;;;24.67;6.50;;;22.70;99.90;;;;;;5029872;28;20515;-70
2021/09/20 11:45:14;;;;;;;11.32;5.57;;;23.10;99.90;;;;;;5015208;28;20401;-71
2021/09/20 11:47:54;;;;;;;8.68;4.40;;;23.30;99.90;;;;;;5028522;28;20053;-71
2021/09/20 11:50:30;;;;;;;5.70;3.85;;;23.30;99.90;;;;;;5018340;28;20104;-70
2021/09/20 11:53:13;;;;;;;5.60;3.53;;;23.50;99.90;;;;;;5030872;28;20073;-71
2021/09/20 11:55:45;;;;;;;7.07;4.15;;;24.00;99.90;;;;;;5026477;28;20045;-71
2021/09/20 11:58:14;;;;;;;;;;;24.00;99.90;;;;;;5022890;28;20448;-71
2021/09/20 12:00:44;;;;;;;11.98;4.35;;;24.00;99.90;;;;;;5022628;28;19931;-71
2021/09/20 12:03:14;;;;;;;18.13;5.03;;;23.80;99.90;;;;;;5020668;28;20053;-71
2021/09/20 12:05:47;;;;;;;9.48;4.20;;;24.20;99.90;;;;;;5011913;28;20612;-71
2021/09/20 12:08:25;;;;;;;8.23;4.40;;;24.10;99.90;;;;;;5039362;28;20037;-71
2021/09/20 12:10:58;;;;;;;5.75;4.30;;;24.70;99.90;;;;;;5033479;28;20076;-71
2021/09/20 12:13:34;;;;;;;11.48;4.28;;;25.30;99.90;;;;;;5036079;28;20120;-71
2021/09/20 12:16:08;;;;;;;6.68;3.75;;;26.10;98.10;;;;;;5033490;28;20045;-70
2021/09/20 12:18:36;;;;;;;6.35;3.60;;;25.90;97.10;;;;;;5024547;28;21133;-72
2021/09/20 12:21:09;;;;;;;5.30;3.60;;;25.60;97.00;;;;;;5031200;28;20510;-71
2021/09/20 12:23:39;;;;;;;6.18;3.40;;;26.00;96.50;;;;;;5021285;28;20096;-71
2021/09/20 12:26:15;;;;;;;8.18;3.88;;;26.50;96.10;;;;;;5011561;28;20061;-72
2021/09/20 12:29:01;;;;;;;12.88;4.43;;;26.70;95.10;;;;;;5019556;28;20046;-71
2021/09/20 12:31:32;;;;;;;6.18;3.70;;;27.00;93.90;;;;;;5027391;28;20128;-71
2021/09/20 12:34:03;;;;;;;5.77;3.60;;;27.40;93.80;;;;;;5033353;28;20049;-71
2021/09/20 12:36:45;;;;;;;6.53;3.75;;;28.30;92.60;;;;;;5037109;28;20053;-71
2021/09/20 12:39:27;;;;;;;5.28;3.60;;;28.10;91.50;;;;;;5036360;28;20052;-71
2021/09/20 12:41:58;;;;;;;4.90;3.47;;;27.20;91.60;;;;;;5032023;28;20056;-71
2021/09/20 12:44:40;;;;;;;7.03;3.60;;;26.70;91.80;;;;;;5017645;28;20048;-71
2021/09/20 12:47:26;;;;;;;5.00;3.80;;;26.70;91.90;;;;;;5032258;28;20080;-71
2021/09/20 12:50:06;;;;;;;6.68;3.67;;;26.70;91.90;;;;;;5042560;28;20047;-71